AXM429 WIMM-WMKK
Flight info
| Callsign | AXM429 |
|---|---|
| Flight time | 0h 47m |
| Altitude | 25000 |
| Route | PUGER2A PUGER PUGER2K |
| Aircraft | A20N/M-SDE2E3FGHIRWXY/LB1 |
Departure
| Time | 2026-04-24 12:26 |
|---|---|
| Airport | Kualanamu International Airport (WIMM) |
Arrival
| Time | 2026-04-24 13:13 |
|---|---|
| Airport | Kuala Lumpur International Airport (WMKK) |
| Time | Latitude | Longitude | Altitude | Speed | Heading |
|---|---|---|---|---|---|
| 2026-04-24 11:58 | 3.63766 | 98.87957 | 30 ft | 0 kts | 224° |
| 2026-04-24 12:06 | 3.63775 | 98.87966 | 30 ft | 3 kts | 224° |
| 2026-04-24 12:06 | 3.63789 | 98.87979 | 30 ft | 3 kts | 224° |
| 2026-04-24 12:07 | 3.63799 | 98.87994 | 30 ft | 3 kts | 278° |
| 2026-04-24 12:07 | 3.63798 | 98.88000 | 30 ft | 0 kts | 306° |
| 2026-04-24 12:11 | 3.63799 | 98.87998 | 30 ft | 2 kts | 306° |
| 2026-04-24 12:11 | 3.63816 | 98.87977 | 30 ft | 6 kts | 311° |
| 2026-04-24 12:11 | 3.63847 | 98.87943 | 30 ft | 7 kts | 317° |
| 2026-04-24 12:11 | 3.63879 | 98.87932 | 30 ft | 0 kts | 358° |
| 2026-04-24 12:12 | 3.63885 | 98.87935 | 30 ft | 4 kts | 18° |
| 2026-04-24 12:12 | 3.63924 | 98.87969 | 30 ft | 11 kts | 46° |
| 2026-04-24 12:12 | 3.63987 | 98.88033 | 30 ft | 14 kts | 44° |
| 2026-04-24 12:12 | 3.64059 | 98.88104 | 30 ft | 15 kts | 45° |
| 2026-04-24 12:13 | 3.64132 | 98.88135 | 30 ft | 10 kts | 346° |
| 2026-04-24 12:13 | 3.64175 | 98.88105 | 30 ft | 6 kts | 316° |
| 2026-04-24 12:13 | 3.64208 | 98.88073 | 30 ft | 7 kts | 316° |
| 2026-04-24 12:13 | 3.64249 | 98.88034 | 30 ft | 9 kts | 316° |
| 2026-04-24 12:14 | 3.64290 | 98.87979 | 30 ft | 11 kts | 286° |
| 2026-04-24 12:14 | 3.64261 | 98.87912 | 30 ft | 12 kts | 224° |
| 2026-04-24 12:14 | 3.64196 | 98.87846 | 30 ft | 15 kts | 226° |
| 2026-04-24 12:14 | 3.64118 | 98.87767 | 30 ft | 17 kts | 222° |
| 2026-04-24 12:15 | 3.64028 | 98.87680 | 30 ft | 20 kts | 224° |
| 2026-04-24 12:15 | 3.63925 | 98.87575 | 30 ft | 23 kts | 225° |
| 2026-04-24 12:15 | 3.63808 | 98.87457 | 30 ft | 25 kts | 223° |
| 2026-04-24 12:15 | 3.63679 | 98.87331 | 31 ft | 25 kts | 225° |
| 2026-04-24 12:16 | 3.63637 | 98.87197 | 31 ft | 20 kts | 281° |
| 2026-04-24 12:16 | 3.63568 | 98.87093 | 31 ft | 18 kts | 224° |
| 2026-04-24 12:16 | 3.63479 | 98.87005 | 31 ft | 18 kts | 225° |
| 2026-04-24 12:16 | 3.63384 | 98.86912 | 30 ft | 20 kts | 223° |
| 2026-04-24 12:17 | 3.63285 | 98.86812 | 30 ft | 21 kts | 225° |
| 2026-04-24 12:17 | 3.63180 | 98.86707 | 30 ft | 22 kts | 224° |
| 2026-04-24 12:17 | 3.63071 | 98.86599 | 31 ft | 23 kts | 224° |
| 2026-04-24 12:17 | 3.62957 | 98.86485 | 31 ft | 24 kts | 224° |
| 2026-04-24 12:18 | 3.62838 | 98.86368 | 31 ft | 24 kts | 225° |
| 2026-04-24 12:18 | 3.62721 | 98.86252 | 31 ft | 23 kts | 226° |
| 2026-04-24 12:18 | 3.62609 | 98.86138 | 32 ft | 23 kts | 224° |
| 2026-04-24 12:18 | 3.62512 | 98.86027 | 31 ft | 19 kts | 248° |
| 2026-04-24 12:19 | 3.62527 | 98.85946 | 31 ft | 0 kts | 315° |
| 2026-04-24 12:21 | 3.62546 | 98.85930 | 31 ft | 9 kts | 322° |
| 2026-04-24 12:22 | 3.62613 | 98.85913 | 31 ft | 11 kts | 9° |
| 2026-04-24 12:22 | 3.62675 | 98.85948 | 33 ft | 10 kts | 45° |
| 2026-04-24 12:22 | 3.62699 | 98.85972 | 33 ft | 0 kts | 45° |
| 2026-04-24 12:24 | 3.62699 | 98.85973 | 33 ft | 1 kts | 45° |
| 2026-04-24 12:25 | 3.62760 | 98.86033 | 33 ft | 23 kts | 45° |
| 2026-04-24 12:25 | 3.63007 | 98.86282 | 32 ft | 81 kts | 45° |
| 2026-04-24 12:25 | 3.63544 | 98.86816 | 31 ft | 135 kts | 45° |
| 2026-04-24 12:25 | 3.64306 | 98.87574 | 102 ft | 166 kts | 46° |
| 2026-04-24 12:26 | 3.65129 | 98.88398 | 509 ft | 170 kts | 46° |
| 2026-04-24 12:26 | 3.65891 | 98.89299 | 1085 ft | 171 kts | 68° |
| 2026-04-24 12:26 | 3.66223 | 98.90450 | 1584 ft | 176 kts | 78° |
| 2026-04-24 12:26 | 3.66524 | 98.91676 | 2131 ft | 186 kts | 78° |
| 2026-04-24 12:27 | 3.66830 | 98.92998 | 2512 ft | 209 kts | 84° |
| 2026-04-24 12:27 | 3.66853 | 98.94561 | 2726 ft | 239 kts | 96° |
| 2026-04-24 12:27 | 3.66619 | 98.96278 | 3155 ft | 256 kts | 100° |
| 2026-04-24 12:27 | 3.66296 | 98.98058 | 3741 ft | 262 kts | 101° |
| 2026-04-24 12:28 | 3.65947 | 98.99859 | 4347 ft | 264 kts | 101° |
| 2026-04-24 12:28 | 3.65594 | 99.01650 | 4946 ft | 266 kts | 101° |
| 2026-04-24 12:28 | 3.65230 | 99.03478 | 5543 ft | 268 kts | 101° |
| 2026-04-24 12:28 | 3.64863 | 99.05321 | 6151 ft | 271 kts | 101° |
| 2026-04-24 12:29 | 3.64490 | 99.07182 | 6729 ft | 275 kts | 101° |
| 2026-04-24 12:29 | 3.64113 | 99.09071 | 7320 ft | 277 kts | 101° |
| 2026-04-24 12:29 | 3.63734 | 99.10964 | 7914 ft | 279 kts | 101° |
| 2026-04-24 12:29 | 3.63350 | 99.12879 | 8525 ft | 281 kts | 101° |
| 2026-04-24 12:30 | 3.62964 | 99.14806 | 9143 ft | 284 kts | 101° |
| 2026-04-24 12:30 | 3.62573 | 99.16755 | 9767 ft | 287 kts | 101° |
| 2026-04-24 12:30 | 3.62179 | 99.18722 | 10342 ft | 291 kts | 101° |
| 2026-04-24 12:30 | 3.61777 | 99.20729 | 10924 ft | 297 kts | 101° |
| 2026-04-24 12:31 | 3.61367 | 99.22776 | 11517 ft | 303 kts | 101° |
| 2026-04-24 12:31 | 3.60948 | 99.24865 | 12129 ft | 308 kts | 101° |
| 2026-04-24 12:31 | 3.60523 | 99.26984 | 12744 ft | 313 kts | 102° |
| 2026-04-24 12:31 | 3.60096 | 99.29112 | 13366 ft | 318 kts | 102° |
| 2026-04-24 12:32 | 3.59656 | 99.31304 | 13956 ft | 323 kts | 102° |
| 2026-04-24 12:32 | 3.59210 | 99.33527 | 14516 ft | 328 kts | 102° |
| 2026-04-24 12:32 | 3.58759 | 99.35778 | 15089 ft | 332 kts | 102° |
| 2026-04-24 12:32 | 3.58302 | 99.38055 | 15680 ft | 335 kts | 102° |
| 2026-04-24 12:33 | 3.57840 | 99.40356 | 16225 ft | 340 kts | 102° |
| 2026-04-24 12:33 | 3.57370 | 99.42699 | 16719 ft | 346 kts | 102° |
| 2026-04-24 12:33 | 3.56892 | 99.45080 | 17197 ft | 351 kts | 102° |
| 2026-04-24 12:33 | 3.56572 | 99.46671 | 17536 ft | 354 kts | 102° |
| 2026-04-24 12:34 | 3.56085 | 99.49101 | 18054 ft | 358 kts | 102° |
| 2026-04-24 12:34 | 3.55593 | 99.51552 | 18482 ft | 360 kts | 102° |
| 2026-04-24 12:34 | 3.55097 | 99.54020 | 18942 ft | 363 kts | 102° |
| 2026-04-24 12:34 | 3.54598 | 99.56506 | 19391 ft | 365 kts | 102° |
| 2026-04-24 12:35 | 3.54096 | 99.59005 | 19850 ft | 367 kts | 102° |
| 2026-04-24 12:35 | 3.53590 | 99.61523 | 20322 ft | 369 kts | 102° |
| 2026-04-24 12:35 | 3.53084 | 99.64042 | 20784 ft | 371 kts | 102° |
| 2026-04-24 12:35 | 3.52574 | 99.66580 | 21268 ft | 373 kts | 102° |
| 2026-04-24 12:36 | 3.52061 | 99.69133 | 21760 ft | 375 kts | 102° |
| 2026-04-24 12:36 | 3.51546 | 99.71693 | 22256 ft | 377 kts | 102° |
| 2026-04-24 12:36 | 3.51034 | 99.74238 | 22752 ft | 379 kts | 102° |
| 2026-04-24 12:36 | 3.50511 | 99.76841 | 23162 ft | 384 kts | 102° |
| 2026-04-24 12:37 | 3.49980 | 99.79483 | 23523 ft | 389 kts | 102° |
| 2026-04-24 12:37 | 3.49441 | 99.82160 | 23842 ft | 394 kts | 102° |
| 2026-04-24 12:37 | 3.48898 | 99.84858 | 24161 ft | 398 kts | 102° |
| 2026-04-24 12:37 | 3.48346 | 99.87601 | 24502 ft | 402 kts | 102° |
| 2026-04-24 12:38 | 3.47791 | 99.90362 | 24836 ft | 407 kts | 102° |
| 2026-04-24 12:38 | 3.47226 | 99.93168 | 24998 ft | 416 kts | 102° |
| 2026-04-24 12:38 | 3.46649 | 99.96032 | 25028 ft | 423 kts | 102° |
| 2026-04-24 12:39 | 3.44909 | 100.04677 | 25037 ft | 424 kts | 102° |
| 2026-04-24 12:39 | 3.44327 | 100.07566 | 25032 ft | 424 kts | 102° |
| 2026-04-24 12:39 | 3.43745 | 100.10456 | 25036 ft | 424 kts | 102° |
| 2026-04-24 12:40 | 3.43162 | 100.13352 | 25031 ft | 424 kts | 102° |
| 2026-04-24 12:40 | 3.42579 | 100.16242 | 25038 ft | 424 kts | 102° |
| 2026-04-24 12:40 | 3.41997 | 100.19129 | 25034 ft | 423 kts | 102° |
| 2026-04-24 12:40 | 3.41415 | 100.22018 | 25036 ft | 423 kts | 102° |
| 2026-04-24 12:41 | 3.40832 | 100.24909 | 25034 ft | 423 kts | 102° |
| 2026-04-24 12:41 | 3.40253 | 100.27802 | 25033 ft | 423 kts | 101° |
| 2026-04-24 12:41 | 3.39523 | 100.30647 | 25032 ft | 422 kts | 114° |
| 2026-04-24 12:41 | 3.38234 | 100.33285 | 25038 ft | 422 kts | 117° |
| 2026-04-24 12:42 | 3.36891 | 100.35896 | 25037 ft | 421 kts | 117° |
| 2026-04-24 12:42 | 3.35581 | 100.38454 | 25022 ft | 405 kts | 117° |
| 2026-04-24 12:42 | 3.34340 | 100.40922 | 25040 ft | 389 kts | 116° |
| 2026-04-24 12:42 | 3.33161 | 100.43302 | 25071 ft | 373 kts | 116° |
| 2026-04-24 12:43 | 3.32043 | 100.45579 | 25123 ft | 357 kts | 116° |
| 2026-04-24 12:43 | 3.30978 | 100.47759 | 25186 ft | 340 kts | 116° |
| 2026-04-24 12:43 | 3.29977 | 100.49814 | 25225 ft | 325 kts | 116° |
| 2026-04-24 12:43 | 3.29009 | 100.51806 | 25247 ft | 309 kts | 116° |
| 2026-04-24 12:44 | 3.28091 | 100.53696 | 25258 ft | 294 kts | 116° |
| 2026-04-24 12:44 | 3.27217 | 100.55497 | 25179 ft | 283 kts | 116° |
| 2026-04-24 12:44 | 3.26344 | 100.57296 | 24589 ft | 293 kts | 116° |
| 2026-04-24 12:44 | 3.25438 | 100.59163 | 23986 ft | 303 kts | 116° |
| 2026-04-24 12:45 | 3.24503 | 100.61089 | 23384 ft | 313 kts | 116° |
| 2026-04-24 12:45 | 3.23537 | 100.63079 | 22680 ft | 322 kts | 116° |
| 2026-04-24 12:45 | 3.22545 | 100.65124 | 21987 ft | 331 kts | 116° |
| 2026-04-24 12:45 | 3.21527 | 100.67224 | 21296 ft | 339 kts | 116° |
| 2026-04-24 12:46 | 3.20487 | 100.69367 | 20613 ft | 346 kts | 116° |
| 2026-04-24 12:46 | 3.19439 | 100.71527 | 19940 ft | 353 kts | 115° |
| 2026-04-24 12:46 | 3.18355 | 100.73761 | 19232 ft | 360 kts | 115° |
| 2026-04-24 12:46 | 3.17251 | 100.76035 | 18536 ft | 366 kts | 115° |
| 2026-04-24 12:47 | 3.16131 | 100.78345 | 17783 ft | 372 kts | 115° |
| 2026-04-24 12:47 | 3.14976 | 100.80725 | 16940 ft | 378 kts | 115° |
| 2026-04-24 12:47 | 3.13833 | 100.83078 | 16129 ft | 383 kts | 115° |
| 2026-04-24 12:47 | 3.12659 | 100.85497 | 15305 ft | 388 kts | 116° |
| 2026-04-24 12:48 | 3.11471 | 100.87945 | 14470 ft | 392 kts | 116° |
| 2026-04-24 12:48 | 3.10275 | 100.90400 | 13652 ft | 391 kts | 116° |
| 2026-04-24 12:48 | 3.09085 | 100.92827 | 12724 ft | 386 kts | 116° |
| 2026-04-24 12:48 | 3.07908 | 100.95227 | 11835 ft | 381 kts | 116° |
| 2026-04-24 12:49 | 3.06765 | 100.97557 | 11007 ft | 376 kts | 116° |
| 2026-04-24 12:49 | 3.05623 | 100.99884 | 10202 ft | 370 kts | 116° |
| 2026-04-24 12:49 | 3.04498 | 101.02178 | 9405 ft | 364 kts | 115° |
| 2026-04-24 12:49 | 3.03392 | 101.04432 | 8585 ft | 357 kts | 115° |
| 2026-04-24 12:50 | 3.02314 | 101.06630 | 7962 ft | 346 kts | 115° |
| 2026-04-24 12:50 | 3.01281 | 101.08734 | 7717 ft | 324 kts | 116° |
| 2026-04-24 12:50 | 3.00348 | 101.10682 | 7861 ft | 296 kts | 107° |
| 2026-04-24 12:50 | 3.00265 | 101.12582 | 8307 ft | 258 kts | 73° |
| 2026-04-24 12:51 | 3.01192 | 101.13979 | 8768 ft | 244 kts | 37° |
| 2026-04-24 12:51 | 3.02668 | 101.14860 | 9002 ft | 251 kts | 30° |
| 2026-04-24 12:51 | 3.04178 | 101.15739 | 9026 ft | 251 kts | 34° |
| 2026-04-24 12:51 | 3.05661 | 101.16640 | 9008 ft | 247 kts | 21° |
| 2026-04-24 12:52 | 3.07325 | 101.16781 | 8869 ft | 240 kts | 351° |
| 2026-04-24 12:52 | 3.08922 | 101.16383 | 8661 ft | 235 kts | 345° |
| 2026-04-24 12:52 | 3.10476 | 101.15924 | 8412 ft | 231 kts | 345° |
| 2026-04-24 12:52 | 3.12014 | 101.15486 | 8135 ft | 229 kts | 346° |
| 2026-04-24 12:53 | 3.13548 | 101.15072 | 7861 ft | 227 kts | 347° |
| 2026-04-24 12:53 | 3.15084 | 101.14722 | 7559 ft | 225 kts | 358° |
| 2026-04-24 12:53 | 3.16641 | 101.14744 | 7265 ft | 223 kts | 6° |
| 2026-04-24 12:53 | 3.18072 | 101.14883 | 7006 ft | 222 kts | 7° |
| 2026-04-24 12:54 | 3.19602 | 101.15052 | 6726 ft | 221 kts | 8° |
| 2026-04-24 12:54 | 3.21107 | 101.15220 | 6457 ft | 220 kts | 8° |
| 2026-04-24 12:54 | 3.22624 | 101.15387 | 6179 ft | 219 kts | 7° |
| 2026-04-24 12:54 | 3.24136 | 101.15580 | 5880 ft | 218 kts | 15° |
| 2026-04-24 12:55 | 3.25549 | 101.16090 | 5584 ft | 216 kts | 25° |
| 2026-04-24 12:55 | 3.26907 | 101.16735 | 5289 ft | 216 kts | 27° |
| 2026-04-24 12:55 | 3.28256 | 101.17404 | 5052 ft | 222 kts | 27° |
| 2026-04-24 12:55 | 3.29692 | 101.18115 | 4996 ft | 236 kts | 27° |
| 2026-04-24 12:56 | 3.31176 | 101.18845 | 4992 ft | 239 kts | 27° |
| 2026-04-24 12:56 | 3.32650 | 101.19620 | 4987 ft | 238 kts | 37° |
| 2026-04-24 12:56 | 3.33891 | 101.20704 | 4993 ft | 237 kts | 45° |
| 2026-04-24 12:56 | 3.35045 | 101.21885 | 4994 ft | 237 kts | 47° |
| 2026-04-24 12:57 | 3.36184 | 101.23078 | 4996 ft | 237 kts | 47° |
| 2026-04-24 12:57 | 3.37329 | 101.24275 | 5000 ft | 237 kts | 47° |
| 2026-04-24 12:57 | 3.38332 | 101.25562 | 4986 ft | 234 kts | 69° |
| 2026-04-24 12:57 | 3.38429 | 101.27134 | 4996 ft | 229 kts | 109° |
| 2026-04-24 12:58 | 3.37491 | 101.28383 | 4995 ft | 230 kts | 146° |
| 2026-04-24 12:58 | 3.36053 | 101.29136 | 4998 ft | 236 kts | 154° |
| 2026-04-24 12:58 | 3.34574 | 101.29857 | 5000 ft | 237 kts | 152° |
| 2026-04-24 12:58 | 3.33143 | 101.30636 | 4994 ft | 235 kts | 149° |
| 2026-04-24 12:59 | 3.31787 | 101.31441 | 5052 ft | 214 kts | 147° |
| 2026-04-24 12:59 | 3.30616 | 101.32170 | 5205 ft | 183 kts | 146° |
| 2026-04-24 12:59 | 3.29616 | 101.32807 | 5204 ft | 159 kts | 146° |
| 2026-04-24 12:59 | 3.28672 | 101.33421 | 4767 ft | 166 kts | 145° |
| 2026-04-24 13:00 | 3.27711 | 101.34057 | 4338 ft | 171 kts | 146° |
| 2026-04-24 13:00 | 3.26697 | 101.34731 | 3923 ft | 174 kts | 146° |
| 2026-04-24 13:00 | 3.25681 | 101.35410 | 3539 ft | 176 kts | 146° |
| 2026-04-24 13:00 | 3.24661 | 101.36092 | 3075 ft | 182 kts | 147° |
| 2026-04-24 13:01 | 3.23547 | 101.36836 | 2618 ft | 197 kts | 147° |
| 2026-04-24 13:01 | 3.22405 | 101.37600 | 2505 ft | 198 kts | 147° |
| 2026-04-24 13:01 | 3.21261 | 101.38367 | 2495 ft | 198 kts | 147° |
| 2026-04-24 13:01 | 3.20120 | 101.39134 | 2497 ft | 197 kts | 147° |
| 2026-04-24 13:02 | 3.18978 | 101.39900 | 2494 ft | 198 kts | 147° |
| 2026-04-24 13:02 | 3.17848 | 101.40655 | 2493 ft | 198 kts | 148° |
| 2026-04-24 13:02 | 3.16678 | 101.41374 | 2494 ft | 197 kts | 150° |
| 2026-04-24 13:02 | 3.15490 | 101.42064 | 2493 ft | 197 kts | 151° |
| 2026-04-24 13:03 | 3.14298 | 101.42746 | 2494 ft | 197 kts | 152° |
| 2026-04-24 13:03 | 3.13104 | 101.43424 | 2495 ft | 197 kts | 151° |
| 2026-04-24 13:03 | 3.11908 | 101.44103 | 2493 ft | 197 kts | 152° |
| 2026-04-24 13:03 | 3.10713 | 101.44780 | 2494 ft | 197 kts | 151° |
| 2026-04-24 13:04 | 3.09519 | 101.45456 | 2492 ft | 198 kts | 151° |
| 2026-04-24 13:04 | 3.08321 | 101.46134 | 2494 ft | 197 kts | 151° |
| 2026-04-24 13:04 | 3.07128 | 101.46810 | 2493 ft | 197 kts | 151° |
| 2026-04-24 13:04 | 3.05930 | 101.47489 | 2496 ft | 197 kts | 152° |
| 2026-04-24 13:05 | 3.04736 | 101.48165 | 2495 ft | 197 kts | 151° |
| 2026-04-24 13:05 | 3.03541 | 101.48841 | 2491 ft | 197 kts | 152° |
| 2026-04-24 13:05 | 3.02347 | 101.49517 | 2495 ft | 197 kts | 151° |
| 2026-04-24 13:05 | 3.01150 | 101.50195 | 2495 ft | 197 kts | 151° |
| 2026-04-24 13:06 | 2.99950 | 101.50875 | 2498 ft | 200 kts | 151° |
| 2026-04-24 13:06 | 2.98722 | 101.51569 | 2497 ft | 203 kts | 150° |
| 2026-04-24 13:06 | 2.97500 | 101.52260 | 2497 ft | 200 kts | 151° |
| 2026-04-24 13:06 | 2.96231 | 101.52830 | 2496 ft | 199 kts | 155° |
| 2026-04-24 13:07 | 2.95007 | 101.53463 | 2495 ft | 199 kts | 149° |
| 2026-04-24 13:07 | 2.93855 | 101.54199 | 2502 ft | 199 kts | 146° |
| 2026-04-24 13:07 | 2.92701 | 101.54970 | 2499 ft | 200 kts | 146° |
| 2026-04-24 13:07 | 2.91552 | 101.55746 | 2500 ft | 199 kts | 146° |
| 2026-04-24 13:08 | 2.90406 | 101.56527 | 2498 ft | 200 kts | 146° |
| 2026-04-24 13:08 | 2.89277 | 101.57301 | 2505 ft | 187 kts | 146° |
| 2026-04-24 13:08 | 2.88285 | 101.57979 | 2500 ft | 160 kts | 145° |
| 2026-04-24 13:09 | 2.86502 | 101.59191 | 2505 ft | 154 kts | 146° |
| 2026-04-24 13:09 | 2.85615 | 101.59790 | 2502 ft | 154 kts | 146° |
| 2026-04-24 13:09 | 2.84724 | 101.60390 | 2501 ft | 155 kts | 146° |
| 2026-04-24 13:09 | 2.83844 | 101.60981 | 2513 ft | 154 kts | 146° |
| 2026-04-24 13:10 | 2.82951 | 101.61580 | 2507 ft | 154 kts | 146° |
| 2026-04-24 13:10 | 2.82064 | 101.62179 | 2459 ft | 154 kts | 146° |
| 2026-04-24 13:10 | 2.81173 | 101.62779 | 2111 ft | 155 kts | 146° |
| 2026-04-24 13:10 | 2.80303 | 101.63365 | 1835 ft | 145 kts | 144° |
| 2026-04-24 13:11 | 2.79498 | 101.63909 | 1582 ft | 134 kts | 144° |
| 2026-04-24 13:11 | 2.78739 | 101.64421 | 1251 ft | 131 kts | 143° |
| 2026-04-24 13:11 | 2.77970 | 101.64941 | 1146 ft | 134 kts | 143° |
| 2026-04-24 13:11 | 2.77185 | 101.65469 | 974 ft | 137 kts | 144° |
| 2026-04-24 13:12 | 2.76406 | 101.66000 | 719 ft | 135 kts | 144° |
| 2026-04-24 13:12 | 2.75628 | 101.66534 | 540 ft | 137 kts | 146° |
| 2026-04-24 13:12 | 2.74845 | 101.67063 | 355 ft | 134 kts | 145° |
| 2026-04-24 13:12 | 2.74061 | 101.67586 | 158 ft | 136 kts | 146° |
| 2026-04-24 13:13 | 2.73310 | 101.68094 | 60 ft | 122 kts | 146° |
| 2026-04-24 13:13 | 2.72769 | 101.68456 | 62 ft | 56 kts | 146° |
| 2026-04-24 13:13 | 2.72615 | 101.68558 | 58 ft | 41 kts | 146° |